createdAt,value
2023-01-03T00:01:22.173Z,10.21
2023-01-03T00:05:38.558Z,9.18
2023-01-03T00:09:54.919Z,9.56
2023-01-03T00:14:14.116Z,9.67
2023-01-03T00:18:30.472Z,9.50
2023-01-03T00:22:46.758Z,9.76
2023-01-03T00:27:03.626Z,9.59
2023-01-03T00:31:20.096Z,9.62
2023-01-03T00:35:36.464Z,9.40
2023-01-03T00:39:52.755Z,9.36
2023-01-03T00:44:09.473Z,9.22
2023-01-03T00:48:26.146Z,9.36
2023-01-03T00:52:42.516Z,9.36
2023-01-03T00:56:59.042Z,9.27
2023-01-03T01:01:21.970Z,9.18
2023-01-03T01:05:38.548Z,9.31
2023-01-03T01:09:54.900Z,9.19
2023-01-03T01:14:21.207Z,9.22
2023-01-03T01:18:38.778Z,9.35
2023-01-03T01:22:55.029Z,9.31
2023-01-03T01:27:14.461Z,9.21
2023-01-03T01:31:31.384Z,9.13
2023-01-03T01:35:47.687Z,9.14
2023-01-03T01:40:04.172Z,9.20
2023-01-03T01:44:45.190Z,9.29
2023-01-03T01:49:04.068Z,8.94
2023-01-03T01:53:35.038Z,9.12
2023-01-03T01:57:51.974Z,8.98
2023-01-03T02:02:10.295Z,8.90
2023-01-03T02:06:27.058Z,9.09
2023-01-03T02:11:07.521Z,9.25
2023-01-03T02:15:35.583Z,8.97
2023-01-03T02:20:17.339Z,8.99
2023-01-03T02:25:13.335Z,9.03
2023-01-03T02:29:50.845Z,8.50
2023-01-03T02:34:07.170Z,8.80
2023-01-03T02:38:41.188Z,8.43
2023-01-03T02:43:06.263Z,8.71
2023-01-03T02:47:25.589Z,8.18
2023-01-03T02:51:51.185Z,8.14
2023-01-03T02:56:12.018Z,8.32
2023-01-03T03:00:30.889Z,8.25
2023-01-03T03:04:49.512Z,8.52
2023-01-03T03:09:05.776Z,8.46
2023-01-03T03:13:53.215Z,8.25
2023-01-03T03:18:20.775Z,8.41
2023-01-03T03:23:13.822Z,8.25
2023-01-03T03:27:51.194Z,8.33
2023-01-03T03:32:07.467Z,8.58
2023-01-03T03:36:33.452Z,8.48
2023-01-03T03:41:37.020Z,8.68
2023-01-03T03:46:07.724Z,8.65
2023-01-03T03:50:46.765Z,8.72
2023-01-03T03:55:11.212Z,8.82
2023-01-03T03:59:28.254Z,8.80
2023-01-03T04:03:46.101Z,8.84
2023-01-03T04:08:02.618Z,8.61
2023-01-03T04:12:18.897Z,8.99
2023-01-03T04:16:35.523Z,8.82
2023-01-03T04:20:51.892Z,8.86
2023-01-03T04:25:08.717Z,8.92
2023-01-03T04:29:24.999Z,8.86
2023-01-03T04:33:41.797Z,8.75
2023-01-03T04:37:58.348Z,8.71
2023-01-03T04:42:33.199Z,8.60
2023-01-03T04:46:53.072Z,8.55
2023-01-03T04:51:09.731Z,8.60
2023-01-03T04:55:26.156Z,8.70
2023-01-03T04:59:42.513Z,8.48
2023-01-03T05:04:00.753Z,8.57
2023-01-03T05:08:17.185Z,8.51
2023-01-03T05:12:33.439Z,8.42
2023-01-03T05:16:49.749Z,8.48
2023-01-03T05:21:35.573Z,8.44
2023-01-03T05:25:52.436Z,8.35
2023-01-03T05:30:09.024Z,8.34
2023-01-03T05:34:25.435Z,8.39
2023-01-03T05:38:41.763Z,8.30
2023-01-03T05:42:57.981Z,8.22
2023-01-03T05:47:14.227Z,8.34
2023-01-03T05:51:30.439Z,8.32
2023-01-03T05:55:46.655Z,8.17
2023-01-03T06:00:04.072Z,7.81
2023-01-03T06:04:20.594Z,8.00
2023-01-03T06:08:37.364Z,6.97
2023-01-03T06:12:53.565Z,6.75
2023-01-03T06:17:28.700Z,6.98
2023-01-03T06:21:45.029Z,6.73
2023-01-03T06:26:04.419Z,6.94
2023-01-03T06:30:21.142Z,6.95
2023-01-03T06:34:37.659Z,7.13
2023-01-03T06:38:54.766Z,7.00
2023-01-03T06:43:11.091Z,7.59
2023-01-03T06:47:45.995Z,7.78
2023-01-03T06:52:22.597Z,7.49
2023-01-03T06:56:38.879Z,7.40
2023-01-03T07:00:56.345Z,7.63
2023-01-03T07:05:15.548Z,7.46
2023-01-03T07:09:31.854Z,7.94
2023-01-03T07:14:00.330Z,8.03
2023-01-03T07:18:16.615Z,7.71
2023-01-03T07:22:33.033Z,7.90
2023-01-03T07:26:49.289Z,7.66
2023-01-03T07:31:07.317Z,8.13
2023-01-03T07:35:26.676Z,7.99
2023-01-03T07:39:42.920Z,7.51
2023-01-03T07:43:59.196Z,8.12
2023-01-03T07:48:16.073Z,7.99
2023-01-03T07:52:32.243Z,7.93
2023-01-03T07:56:48.543Z,8.09
2023-01-03T08:01:13.090Z,8.50
2023-01-03T08:05:29.487Z,8.32
2023-01-03T08:10:06.371Z,8.47
2023-01-03T08:14:26.129Z,8.48
2023-01-03T08:18:47.106Z,8.42
2023-01-03T08:23:03.368Z,8.41
2023-01-03T08:27:19.662Z,8.46
2023-01-03T08:31:40.920Z,8.56
2023-01-03T08:36:03.662Z,8.69
2023-01-03T08:40:20.062Z,8.51
2023-01-03T08:44:37.233Z,8.59
2023-01-03T08:48:54.601Z,8.55
2023-01-03T08:53:11.187Z,8.17
2023-01-03T08:57:27.361Z,8.26
2023-01-03T09:01:43.779Z,8.33
2023-01-03T09:06:03.974Z,8.44
2023-01-03T09:10:20.309Z,8.59
2023-01-03T09:14:36.587Z,8.43
2023-01-03T09:18:52.817Z,8.71
2023-01-03T09:23:09.181Z,8.67
2023-01-03T09:27:25.546Z,8.70
2023-01-03T09:31:41.892Z,9.03
2023-01-03T09:35:58.246Z,8.91
2023-01-03T09:40:14.838Z,8.74
2023-01-03T09:44:31.007Z,8.72
2023-01-03T09:48:49.206Z,8.68
2023-01-03T09:53:24.488Z,8.39
2023-01-03T09:57:59.641Z,8.81
2023-01-03T10:02:59.468Z,8.71
2023-01-03T10:07:31.901Z,8.76
2023-01-03T10:12:11.987Z,8.54
2023-01-03T10:16:56.380Z,8.43
2023-01-03T10:21:43.473Z,8.59
2023-01-03T10:25:59.853Z,8.70
2023-01-03T10:30:27.743Z,8.73
2023-01-03T10:34:44.088Z,8.85
2023-01-03T10:39:11.085Z,9.06
2023-01-03T10:43:41.536Z,9.05
2023-01-03T10:48:01.942Z,9.23
2023-01-03T10:52:23.123Z,9.08
2023-01-03T10:56:40.163Z,9.07
2023-01-03T11:01:31.140Z,9.26
2023-01-03T11:06:15.210Z,9.47
2023-01-03T11:10:54.931Z,9.37
2023-01-03T11:15:18.924Z,9.37
2023-01-03T11:19:35.651Z,9.06
2023-01-03T11:23:54.824Z,9.48
2023-01-03T11:28:39.181Z,9.53
2023-01-03T11:33:04.513Z,9.57
2023-01-03T11:37:37.400Z,9.30
2023-01-03T11:42:30.239Z,9.44
2023-01-03T11:46:49.579Z,9.44
2023-01-03T11:51:19.683Z,9.66
2023-01-03T11:56:11.523Z,9.65
2023-01-03T12:00:40.383Z,9.57
2023-01-03T12:05:21.381Z,9.23
2023-01-03T12:09:55.214Z,9.57
2023-01-03T12:14:38.095Z,9.58
2023-01-03T12:19:12.753Z,9.95
2023-01-03T12:23:40.083Z,10.14
2023-01-03T12:28:23.261Z,10.20
2023-01-03T12:33:10.495Z,9.74
2023-01-03T12:37:30.922Z,9.73
2023-01-03T12:42:07.034Z,9.44
2023-01-03T12:46:37.515Z,9.63
2023-01-03T12:50:56.711Z,9.36
2023-01-03T12:55:20.357Z,9.52
2023-01-03T12:59:59.491Z,9.44
2023-01-03T13:04:29.477Z,9.72
2023-01-03T13:08:52.187Z,9.70
2023-01-03T13:13:13.834Z,9.74
2023-01-03T13:17:32.416Z,9.63
2023-01-03T13:21:54.838Z,10.15
2023-01-03T13:26:22.368Z,10.21
2023-01-03T13:30:38.933Z,10.81
2023-01-03T13:34:55.118Z,10.44
2023-01-03T13:39:48.455Z,10.90
2023-01-03T13:44:24.593Z,10.84
2023-01-03T13:48:51.047Z,11.32
2023-01-03T13:53:31.222Z,11.52
2023-01-03T13:57:54.399Z,11.23
2023-01-03T14:02:10.885Z,11.68
2023-01-03T14:07:03.647Z,11.59
2023-01-03T14:11:41.458Z,11.21
2023-01-03T14:16:21.752Z,10.63
2023-01-03T14:20:39.902Z,10.37
2023-01-03T14:24:57.713Z,10.44
2023-01-03T14:29:20.969Z,10.36
2023-01-03T14:33:41.651Z,10.32
2023-01-03T14:38:00.696Z,10.38
2023-01-03T14:42:21.207Z,10.37
2023-01-03T14:46:38.439Z,10.63
2023-01-03T14:50:55.461Z,10.15
2023-01-03T14:55:20.815Z,10.27
2023-01-03T14:59:38.061Z,10.25
2023-01-03T15:03:55.878Z,10.32
2023-01-03T15:08:20.784Z,10.31
2023-01-03T15:12:39.880Z,10.50
2023-01-03T15:17:12.233Z,10.09
2023-01-03T15:21:29.576Z,10.36
2023-01-03T15:25:45.772Z,10.28
2023-01-03T15:30:23.510Z,10.37
2023-01-03T15:34:43.591Z,10.53
2023-01-03T15:39:02.065Z,10.08
2023-01-03T15:43:20.227Z,10.29
2023-01-03T15:47:36.615Z,10.42
2023-01-03T15:51:52.979Z,10.08
2023-01-03T15:56:18.838Z,10.47
2023-01-03T16:00:35.236Z,10.53
2023-01-03T16:04:54.430Z,10.26
2023-01-03T16:09:12.230Z,10.38
2023-01-03T16:13:38.991Z,10.59
2023-01-03T16:17:55.221Z,10.49
2023-01-03T16:26:49.405Z,10.42
2023-01-03T16:31:14.900Z,10.68
2023-01-03T16:35:31.097Z,10.65
2023-01-03T16:39:48.546Z,10.27
2023-01-03T16:44:05.320Z,10.38
2023-01-03T16:48:24.402Z,10.41
2023-01-03T16:52:43.641Z,10.45
2023-01-03T16:57:00.459Z,10.33
2023-01-03T17:01:16.878Z,10.30
2023-01-03T17:05:36.366Z,10.26
2023-01-03T17:09:52.781Z,10.23
2023-01-03T17:14:15.827Z,10.16
2023-01-03T17:18:37.877Z,10.13
2023-01-03T17:23:00.908Z,10.15
2023-01-03T17:27:32.368Z,10.45
2023-01-03T17:31:49.736Z,10.21
2023-01-03T17:36:08.941Z,10.23
2023-01-03T17:40:33.178Z,10.28
2023-01-03T17:45:09.331Z,10.16
2023-01-03T17:49:25.551Z,10.18
2023-01-03T17:53:42.364Z,10.11
2023-01-03T17:58:01.791Z,10.12
2023-01-03T18:02:20.600Z,10.17
2023-01-03T18:06:38.681Z,10.05
2023-01-03T18:10:55.947Z,10.08
2023-01-03T18:15:20.020Z,10.10
2023-01-03T18:19:36.270Z,10.19
2023-01-03T18:24:01.653Z,10.03
2023-01-03T18:28:20.769Z,10.09
2023-01-03T18:32:36.990Z,10.14
2023-01-03T18:36:53.759Z,10.17
2023-01-03T18:41:25.269Z,10.24
2023-01-03T18:45:44.955Z,10.26
2023-01-03T18:50:01.272Z,10.13
2023-01-03T18:54:21.250Z,10.13
2023-01-03T18:58:41.181Z,10.25
2023-01-03T19:02:57.587Z,10.12
2023-01-03T19:07:28.221Z,10.04
2023-01-03T19:11:46.095Z,9.95
2023-01-03T19:16:04.450Z,10.01
2023-01-03T19:20:26.492Z,9.91
2023-01-03T19:24:43.380Z,9.95
2023-01-03T19:29:02.952Z,10.14
2023-01-03T19:33:21.976Z,10.09
2023-01-03T19:37:38.175Z,10.06
2023-01-03T19:42:18.547Z,10.06
2023-01-03T19:46:34.741Z,9.83
2023-01-03T19:50:53.345Z,9.96
2023-01-03T19:55:11.217Z,9.53
2023-01-03T19:59:36.713Z,10.02
2023-01-03T20:03:55.980Z,9.95
2023-01-03T20:08:12.930Z,9.90
2023-01-03T20:12:29.157Z,9.85
2023-01-03T20:16:46.078Z,9.76
2023-01-03T20:21:15.270Z,9.93
2023-01-03T20:25:37.767Z,9.77
2023-01-03T20:29:57.376Z,9.72
2023-01-03T20:34:13.995Z,9.54
2023-01-03T20:38:35.667Z,9.65
2023-01-03T20:42:54.141Z,9.40
2023-01-03T20:47:13.774Z,9.47
2023-01-03T20:51:30.168Z,9.79
2023-01-03T20:55:47.482Z,9.80
2023-01-03T21:00:04.060Z,9.69
2023-01-03T21:04:20.659Z,9.72
2023-01-03T21:08:55.466Z,9.55
2023-01-03T21:13:12.168Z,9.63
2023-01-03T21:17:28.587Z,9.50
2023-01-03T21:21:48.021Z,9.42
2023-01-03T21:26:04.376Z,9.51
2023-01-03T21:30:22.208Z,9.46
2023-01-03T21:34:38.601Z,9.53
2023-01-03T21:38:55.373Z,9.36
2023-01-03T21:43:11.989Z,9.68
2023-01-03T21:47:28.248Z,9.63
2023-01-03T21:51:44.608Z,9.24
2023-01-03T21:56:00.760Z,9.30
2023-01-03T22:00:18.080Z,9.00
2023-01-03T22:04:34.883Z,8.91
2023-01-03T22:08:51.533Z,9.21
2023-01-03T22:13:08.973Z,9.26
2023-01-03T22:17:25.198Z,8.87
2023-01-03T22:21:41.369Z,8.85
2023-01-03T22:26:07.959Z,8.86
2023-01-03T22:30:24.491Z,8.75
2023-01-03T22:34:40.771Z,8.72
2023-01-03T22:38:56.988Z,8.70
2023-01-03T22:43:13.299Z,8.56
2023-01-03T22:47:29.669Z,8.62
2023-01-03T22:51:45.911Z,8.64
2023-01-03T22:56:06.074Z,8.59
2023-01-03T23:00:22.401Z,8.43
2023-01-03T23:04:38.804Z,8.21
2023-01-03T23:08:55.909Z,8.45
2023-01-03T23:13:12.109Z,8.20
2023-01-03T23:17:46.788Z,8.52
2023-01-03T23:22:02.971Z,8.42
2023-01-03T23:26:19.468Z,8.60
2023-01-03T23:30:36.346Z,8.33
2023-01-03T23:34:55.526Z,8.03
2023-01-03T23:39:18.483Z,8.02
2023-01-03T23:43:35.184Z,7.84
2023-01-03T23:47:52.041Z,8.18
2023-01-03T23:52:08.820Z,7.95
2023-01-03T23:56:25.462Z,8.16
